Time;durP1;ratioP1;P1;durP2;ratioP2;P2;SDS_P1;SDS_P2;PMS_P1;PMS_P2;Temp;Humidity;BMP_temperature;BMP_pressure;BME280_temperature;BME280_humidity;BME280_pressure;Samples;Min_cycle;Max_cycle;Signal;HPM_P1;HPM_P2
2022/09/26 00:00:41;;;;;;;;;;;;;;;;;;5016996;28;19905;-74
2022/09/26 00:03:08;;;;;;;;;;;;;;;;;;5017515;28;19909;-74
2022/09/26 00:05:34;;;;;;;;;;;;;;;;;;5016917;28;19955;-75
2022/09/26 00:08:00;;;;;;;;;;;;;;;;;;5017433;28;19906;-73
2022/09/26 00:10:25;;;;;;;;;;;;;;;;;;5016870;28;19952;-73
2022/09/26 00:12:52;;;;;;;4.28;2.10;;;;;;;;;;5016849;28;20440;-75
2022/09/26 00:15:18;;;;;;;4.85;1.83;;;;;;;;;;5016330;28;20038;-76
2022/09/26 00:17:45;;;;;;;6.07;2.00;;;;;;;;;;5016196;28;20474;-74
2022/09/26 00:20:11;;;;;;;3.95;2.00;;;;;;;;;;5016245;28;20025;-76
2022/09/26 00:22:37;;;;;;;3.90;2.00;;;;;;;;;;5016162;28;20079;-75
2022/09/26 00:25:04;;;;;;;3.20;2.00;;;;;;;;;;5016131;28;20027;-76
2022/09/26 00:27:30;;;;;;;5.63;1.60;;;;;;;;;;5016879;28;20022;-75
2022/09/26 00:29:55;;;;;;;6.70;2.30;;;;;;;;;;5016078;28;20026;-76
2022/09/26 00:32:22;;;;;;;3.40;1.90;;;;;;;;;;5015788;28;20030;-76
2022/09/26 00:34:49;;;;;;;3.40;2.03;;;;;;;;;;5015848;28;20030;-76
2022/09/26 00:37:15;;;;;;;3.53;1.90;;;;;;;;;;5015046;28;20034;-76
2022/09/26 00:39:41;;;;;;;3.67;1.85;;;;;;;;;;5015925;28;20034;-75
2022/09/26 00:42:10;;;;;;;3.70;2.08;;;;;;;;;;5015774;28;20126;-75
2022/09/26 00:44:53;;;;;;;3.42;1.95;;;;;;;;;;5015744;28;20045;-77
2022/09/26 00:47:27;;;;;;;4.50;1.90;;;;;;;;;;5016064;28;20028;-76
2022/09/26 00:50:15;;;;;;;4.45;2.00;;;;;;;;;;5015908;28;20041;-77
2022/09/26 00:52:44;;;;;;;3.08;1.88;;;;;;;;;;5015929;28;20466;-76
2022/09/26 00:55:12;;;;;;;6.88;1.83;;;;;;;;;;5015800;28;20025;-74
2022/09/26 00:57:41;;;;;;;5.72;1.90;;;;;;;;;;5015483;28;20080;-74
2022/09/26 01:00:10;;;;;;;3.67;2.10;;;;;;;;;;5015440;28;20514;-75
2022/09/26 01:02:36;;;;;;;2.35;1.80;;;;;;;;;;5015243;28;20058;-76
2022/09/26 01:05:03;;;;;;;4.90;2.15;;;;;;;;;;5015652;28;20423;-75
2022/09/26 01:07:29;;;;;;;5.03;1.90;;;;;;;;;;5015544;28;20505;-74
2022/09/26 01:09:56;;;;;;;7.53;2.22;;;;;;;;;;5015241;28;20032;-76
2022/09/26 01:12:22;;;;;;;3.50;1.88;;;;;;;;;;5015274;28;20525;-76
2022/09/26 01:14:51;;;;;;;2.38;1.92;;;;;;;;;;5015178;28;20057;-75
2022/09/26 01:17:17;;;;;;;4.07;2.05;;;;;;;;;;5015344;28;20022;-76
2022/09/26 01:19:55;;;;;;;4.47;1.95;;;;;;;;;;5015051;28;20018;-74
2022/09/26 01:22:39;;;;;;;3.90;1.95;;;;;;;;;;5015579;28;20014;-76
2022/09/26 01:25:05;;;;;;;2.70;1.75;;;;;;;;;;5015003;28;20048;-76
2022/09/26 01:27:38;;;;;;;7.40;2.05;;;;;;;;;;5014208;28;20112;-76
2022/09/26 01:30:07;;;;;;;3.28;1.75;;;;;;;;;;5015216;28;20156;-76
2022/09/26 01:32:52;;;;;;;5.78;1.95;;;;;;;;;;5014812;28;20093;-74
2022/09/26 01:35:18;;;;;;;8.13;2.20;;;;;;;;;;5013263;28;20030;-75
2022/09/26 01:37:48;;;;;;;4.10;1.90;;;;;;;;;;5015008;28;20034;-74
2022/09/26 01:40:14;;;;;;;4.72;2.20;;;;;;;;;;5013445;28;20042;-76
2022/09/26 01:43:02;;;;;;;3.03;1.85;;;;;;;;;;5014946;28;20210;-76
2022/09/26 01:45:32;;;;;;;5.38;2.58;;;;;;;;;;5014946;28;20026;-74
2022/09/26 01:48:03;;;;;;;4.80;2.15;;;;;;;;;;5014296;28;20084;-75
2022/09/26 01:50:35;;;;;;;5.78;2.20;;;;;;;;;;5014841;28;20463;-74
2022/09/26 01:53:05;;;;;;;3.38;2.10;;;;;;;;;;5014776;28;20501;-75
2022/09/26 01:55:39;;;;;;;3.88;2.33;;;;;;;;;;5014436;28;20109;-76
2022/09/26 01:58:15;;;;;;;6.35;2.30;;;;;;;;;;5014343;28;20104;-74
2022/09/26 02:00:42;;;;;;;8.20;2.65;;;;;;;;;;5014360;28;20559;-76
2022/09/26 02:03:10;;;;;;;6.25;2.70;;;;;;;;;;5014294;28;20501;-77
2022/09/26 02:05:46;;;;;;;5.07;2.50;;;;;;;;;;5014298;28;20088;-76
2022/09/26 02:08:16;;;;;;;4.95;2.72;;;;;;;;;;5014247;28;20025;-75
2022/09/26 02:10:50;;;;;;;5.63;2.25;;;;;;;;;;5014212;28;20032;-75
2022/09/26 02:13:19;;;;;;;5.88;2.75;;;;;;;;;;5014436;28;20478;-76
2022/09/26 02:15:48;;;;;;;7.78;3.08;;;;;;;;;;5014093;28;20030;-76
2022/09/26 02:18:20;;;;;;;5.95;2.92;;;;;;;;;;5013991;28;20029;-74
2022/09/26 02:20:48;;;;;;;7.13;2.92;;;;;;;;;;5014351;28;20081;-76
2022/09/26 02:23:14;;;;;;;4.78;2.88;;;;;;;;;;5014018;28;20029;-74
2022/09/26 02:25:40;;;;;;;6.55;2.38;;;;;;;;;;5014215;28;20036;-76
2022/09/26 02:28:07;;;;;;;5.65;2.58;;;;;;;;;;5014704;28;20029;-75
2022/09/26 02:30:33;;;;;;;4.03;2.63;;;;;;;;;;5013877;28;20037;-76
2022/09/26 02:32:59;;;;;;;5.47;2.53;;;;;;;;;;5013768;28;20030;-74
2022/09/26 02:38:11;;;;;;;6.95;2.60;;;;;;;;;;5013629;28;20049;-75
2022/09/26 02:40:41;;;;;;;5.03;2.70;;;;;;;;;;5013725;28;20100;-75
2022/09/26 02:43:10;;;;;;;5.00;2.13;;;;;;;;;;5012770;28;20383;-75
2022/09/26 02:45:51;;;;;;;8.57;2.97;;;;;;;;;;5013756;28;20025;-76
2022/09/26 02:48:17;;;;;;;;;;;;;;;;;;5014409;28;20036;-75
2022/09/26 02:50:46;;;;;;;5.00;2.42;;;;;;;;;;4996004;28;19905;-76
2022/09/26 02:53:30;;;;;;;6.10;3.27;;;;;;;;;;5013641;28;20026;-74
2022/09/26 02:56:15;;;;;;;6.00;2.45;;;;;;;;;;5013891;28;20030;-76
2022/09/26 02:58:50;;;;;;;6.65;2.60;;;;;;;;;;5013478;28;20109;-77
2022/09/26 03:01:32;;;;;;;9.00;2.92;;;;;;;;;;5014038;28;20025;-75
2022/09/26 03:04:17;;;;;;;6.28;2.70;;;;;;;;;;5014009;28;20109;-74
2022/09/26 03:06:44;;;;;;;7.10;3.25;;;;;;;;;;5012196;28;20509;-76
2022/09/26 03:09:11;;;;;;;3.25;2.03;;;;;;;;;;5013373;28;20022;-75
2022/09/26 03:11:38;;;;;;;4.47;2.53;;;;;;;;;;5013844;28;20044;-76
2022/09/26 03:14:05;;;;;;;4.80;2.40;;;;;;;;;;5013295;28;20029;-74
2022/09/26 03:16:34;;;;;;;6.47;2.53;;;;;;;;;;5013259;28;20026;-75
2022/09/26 03:19:05;;;;;;;7.00;2.70;;;;;;;;;;5013145;28;20467;-74
2022/09/26 03:21:31;;;;;;;6.55;2.33;;;;;;;;;;5013505;28;20030;-74
2022/09/26 03:23:58;;;;;;;7.32;3.22;;;;;;;;;;5013190;28;20025;-74
2022/09/26 03:26:25;;;;;;;3.88;2.25;;;;;;;;;;5013453;28;20026;-75
2022/09/26 03:28:52;;;;;;;5.45;2.17;;;;;;;;;;5013649;28;20048;-74
2022/09/26 03:31:20;;;;;;;4.95;2.53;;;;;;;;;;5013102;28;20463;-75
2022/09/26 03:33:46;;;;;;;6.80;2.40;;;;;;;;;;5013110;28;20029;-76
2022/09/26 03:36:13;;;;;;;4.75;3.05;;;;;;;;;;5013134;28;20438;-74
2022/09/26 03:38:39;;;;;;;6.25;2.50;;;;;;;;;;5012978;28;20036;-76
2022/09/26 03:41:08;;;;;;;6.85;2.35;;;;;;;;;;5013131;28;20109;-76
2022/09/26 03:43:34;;;;;;;4.45;2.35;;;;;;;;;;5013063;28;20101;-75
2022/09/26 03:46:04;;;;;;;7.40;2.97;;;;;;;;;;5011811;28;20073;-76
2022/09/26 03:48:30;;;;;;;;;;;;;;;;;;5013961;28;20469;-76
2022/09/26 03:51:01;;;;;;;5.50;2.35;;;;;;;;;;4995453;28;19920;-75
2022/09/26 03:53:27;;;;;;;4.75;2.58;;;;;;;;;;5013559;28;20537;-76
2022/09/26 03:55:53;;;;;;;6.47;2.80;;;;;;;;;;5012946;28;20025;-74
2022/09/26 03:58:19;;;;;;;6.15;2.70;;;;;;;;;;5012824;28;20041;-74
2022/09/26 04:00:45;;;;;;;5.13;2.92;;;;;;;;;;5012881;28;20490;-75
2022/09/26 04:03:11;;;;;;;3.53;2.47;;;;;;;;;;5013153;28;20029;-75
2022/09/26 04:05:37;;;;;;;6.68;2.50;;;;;;;;;;5012867;28;20018;-73
2022/09/26 04:08:04;;;;;;;6.15;2.97;;;;;;;;;;5013079;28;20025;-76
2022/09/26 04:10:30;;;;;;;8.38;2.72;;;;;;;;;;5013360;28;20072;-75
2022/09/26 04:12:56;;;;;;;5.68;2.63;;;;;;;;;;5016549;28;20040;-74
2022/09/26 04:15:22;;;;;;;6.05;2.50;;;;;;;;;;5016226;28;20394;-76
2022/09/26 04:17:48;;;;;;;4.75;2.90;;;;;;;;;;5016482;28;20111;-75
2022/09/26 04:20:14;;;;;;;5.18;2.58;;;;;;;;;;5016196;28;20022;-73
2022/09/26 04:22:41;;;;;;;5.78;2.67;;;;;;;;;;5016393;28;20030;-74
2022/09/26 04:25:09;;;;;;;5.43;2.63;;;;;;;;;;5016126;28;20080;-74
2022/09/26 04:27:34;;;;;;;9.45;3.05;;;;;;;;;;5016813;28;20053;-76
2022/09/26 04:30:01;;;;;;;5.28;2.65;;;;;;;;;;5016242;28;20054;-73
2022/09/26 04:32:26;;;;;;;5.85;2.60;;;;;;;;;;5015844;28;20022;-74
2022/09/26 04:34:52;;;;;;;7.35;2.58;;;;;;;;;;5015870;28;20022;-75
2022/09/26 04:37:19;;;;;;;5.15;2.40;;;;;;;;;;5015444;28;20069;-74
2022/09/26 04:39:46;;;;;;;5.82;2.63;;;;;;;;;;5015776;28;20029;-75
2022/09/26 04:42:12;;;;;;;5.18;2.58;;;;;;;;;;5016314;28;20467;-73
2022/09/26 04:44:38;;;;;;;4.25;2.55;;;;;;;;;;5015706;28;20022;-76
2022/09/26 04:47:04;;;;;;;8.32;2.70;;;;;;;;;;5015691;28;20064;-74
2022/09/26 04:49:30;;;;;;;6.15;2.85;;;;;;;;;;5015615;28;20120;-73
2022/09/26 04:51:56;;;;;;;8.15;2.90;;;;;;;;;;5015837;28;20113;-74
2022/09/26 04:54:22;;;;;;;5.15;2.50;;;;;;;;;;5015589;28;20378;-74
2022/09/26 04:56:48;;;;;;;4.47;2.60;;;;;;;;;;5015537;28;20022;-73
2022/09/26 04:59:14;;;;;;;5.57;2.78;;;;;;;;;;5015686;28;20026;-76
2022/09/26 05:01:40;;;;;;;6.60;2.78;;;;;;;;;;5015383;28;20384;-73
2022/09/26 05:04:08;;;;;;;6.68;2.85;;;;;;;;;;5015346;28;20022;-74
2022/09/26 05:06:34;;;;;;;6.88;3.05;;;;;;;;;;5015580;28;20363;-76
2022/09/26 05:09:00;;;;;;;8.43;2.58;;;;;;;;;;5015244;28;20029;-75
2022/09/26 05:11:26;;;;;;;5.07;2.85;;;;;;;;;;5015474;28;20040;-74
2022/09/26 05:13:52;;;;;;;6.70;2.90;;;;;;;;;;5015420;28;20061;-76
2022/09/26 05:16:18;;;;;;;4.93;2.60;;;;;;;;;;5013862;28;20033;-74
2022/09/26 05:18:48;;;;;;;10.90;3.22;;;;;;;;;;5015023;28;20081;-75
2022/09/26 05:21:14;;;;;;;8.88;3.22;;;;;;;;;;5015223;28;20026;-75
2022/09/26 05:26:40;;;;;;;5.90;2.80;;;;;;;;;;5015280;28;20036;-76
2022/09/26 05:29:06;;;;;;;8.43;2.83;;;;;;;;;;5015925;28;20033;-74
2022/09/26 05:31:35;;;;;;;7.03;3.08;;;;;;;;;;5014757;28;20029;-75
2022/09/26 05:34:01;;;;;;;6.93;2.58;;;;;;;;;;5014831;28;20018;-74
2022/09/26 05:36:27;;;;;;;6.70;2.70;;;;;;;;;;5014524;28;20049;-75
2022/09/26 05:38:53;;;;;;;7.00;3.20;;;;;;;;;;5014656;28;20099;-76
2022/09/26 05:41:20;;;;;;;6.78;2.60;;;;;;;;;;5014752;28;20029;-76
2022/09/26 05:43:46;;;;;;;6.85;3.00;;;;;;;;;;5013396;28;20032;-75
2022/09/26 05:46:14;;;;;;;5.70;2.45;;;;;;;;;;5014875;28;20022;-76
2022/09/26 05:48:40;;;;;;;6.38;2.72;;;;;;;;;;5014840;28;20026;-76
2022/09/26 05:51:11;;;;;;;8.43;3.20;;;;;;;;;;5014483;28;20026;-76
2022/09/26 05:53:37;;;;;;;7.85;2.83;;;;;;;;;;5013209;28;20510;-74
2022/09/26 05:56:05;;;;;;;5.60;2.97;;;;;;;;;;5014680;28;20478;-74
2022/09/26 05:58:31;;;;;;;4.82;2.30;;;;;;;;;;5014309;28;20108;-74
2022/09/26 06:01:03;;;;;;;4.13;2.15;;;;;;;;;;5014871;28;20102;-74
2022/09/26 06:03:33;;;;;;;5.60;2.38;;;;;;;;;;5014326;28;20385;-75
2022/09/26 06:06:03;;;;;;;5.97;2.53;;;;;;;;;;5014605;28;20022;-74
2022/09/26 06:08:29;;;;;;;4.97;2.25;;;;;;;;;;5014211;28;20498;-75
2022/09/26 06:10:59;;;;;;;4.28;2.20;;;;;;;;;;5014405;28;20041;-75
2022/09/26 06:13:25;;;;;;;9.32;2.30;;;;;;;;;;5014119;28;20049;-75
2022/09/26 06:15:51;;;;;;;5.38;2.15;;;;;;;;;;5014039;28;20479;-74
2022/09/26 06:18:17;;;;;;;6.22;2.38;;;;;;;;;;5012690;28;20433;-77
2022/09/26 06:20:43;;;;;;;6.15;1.88;;;;;;;;;;5014253;28;20030;-76
2022/09/26 06:23:09;;;;;;;5.00;2.10;;;;;;;;;;5013958;28;20155;-74
2022/09/26 06:25:35;;;;;;;8.05;2.20;;;;;;;;;;5014222;28;20097;-74
2022/09/26 06:28:01;;;;;;;6.55;1.70;;;;;;;;;;5014387;28;20474;-75
2022/09/26 06:30:27;;;;;;;4.55;1.73;;;;;;;;;;5013867;28;20033;-78
2022/09/26 06:32:53;;;;;;;5.63;2.15;;;;;;;;;;5013527;28;20033;-75
2022/09/26 06:35:20;;;;;;;4.50;1.80;;;;;;;;;;5013572;28;20392;-73
2022/09/26 06:37:47;;;;;;;7.88;1.92;;;;;;;;;;5014013;28;20030;-76
2022/09/26 06:40:13;;;;;;;6.15;2.17;;;;;;;;;;5013718;28;20105;-74
2022/09/26 06:42:39;;;;;;;3.88;1.60;;;;;;;;;;5013953;28;20022;-73
2022/09/26 06:45:09;;;;;;;12.75;2.83;;;;;;;;;;5013593;28;20030;-74
2022/09/26 06:47:35;;;;;;;9.55;2.50;;;;;;;;;;5012321;28;20046;-77
2022/09/26 06:50:02;;;;;;;4.50;1.63;;;;;;;;;;5013200;28;20060;-75
2022/09/26 06:52:33;;;;;;;4.78;1.90;;;;;;;;;;5012628;28;20029;-75
2022/09/26 06:55:00;;;;;;;6.22;1.70;;;;;;;;;;4998432;28;20072;-76
2022/09/26 06:57:27;;;;;;;3.25;1.52;;;;;;;;;;5012812;28;20022;-78
2022/09/26 06:59:53;;;;;;;6.53;1.67;;;;;;;;;;5014046;28;20054;-78
2022/09/26 07:02:19;;;;;;;4.20;1.70;;;;;;;;;;5012541;28;20080;-77
2022/09/26 07:04:45;;;;;;;5.50;1.70;;;;;;;;;;5012847;28;20502;-78
2022/09/26 07:07:11;;;;;;;3.75;1.55;;;;;;;;;;5012654;28;20096;-79
2022/09/26 07:09:38;;;;;;;4.88;1.63;;;;;;;;;;5013031;28;20034;-73
2022/09/26 07:12:05;;;;;;;7.53;2.55;;;;;;;;;;5013205;28;20018;-76
2022/09/26 07:14:31;;;;;;;5.82;1.48;;;;;;;;;;5012540;28;20030;-74
2022/09/26 07:16:57;;;;;;;4.40;1.70;;;;;;;;;;5011902;28;20026;-74
2022/09/26 07:19:23;;;;;;;5.78;1.98;;;;;;;;;;5011713;28;20080;-75
2022/09/26 07:21:49;;;;;;;3.83;1.75;;;;;;;;;;5012866;28;20022;-74
2022/09/26 07:24:15;;;;;;;4.55;1.50;;;;;;;;;;5012133;28;20034;-73
2022/09/26 07:26:42;;;;;;;3.78;1.77;;;;;;;;;;4998837;28;20379;-73
2022/09/26 07:29:08;;;;;;;4.50;1.63;;;;;;;;;;5012879;28;20037;-73
2022/09/26 07:31:35;;;;;;;5.53;1.60;;;;;;;;;;5009378;28;20032;-76
2022/09/26 07:34:02;;;;;;;5.00;1.90;;;;;;;;;;5012457;28;20026;-75
2022/09/26 07:36:29;;;;;;;8.10;1.40;;;;;;;;;;5007402;28;20049;-76
2022/09/26 07:38:55;;;;;;;2.25;1.40;;;;;;;;;;5006942;28;20173;-74
2022/09/26 07:41:22;;;;;;;5.28;1.70;;;;;;;;;;4998788;28;20510;-73
2022/09/26 07:43:48;;;;;;;5.55;1.50;;;;;;;;;;4993743;28;20030;-74
2022/09/26 07:51:43;;;;;;;3.65;1.63;;;;;;;;;;5014858;28;20556;-74
2022/09/26 07:54:09;;;;;;;3.08;1.55;;;;;;;;;;5015805;28;20022;-77
2022/09/26 07:56:35;;;;;;;2.95;1.67;;;;;;;;;;5016067;28;20026;-78
2022/09/26 07:59:04;;;;;;;5.32;1.63;;;;;;;;;;4999610;28;20509;-76
2022/09/26 08:01:30;;;;;;;7.32;1.58;;;;;;;;;;5009564;28;20105;-74
2022/09/26 08:03:57;;;;;;;5.10;1.77;;;;;;;;;;4996946;28;20459;-73
2022/09/26 08:06:23;;;;;;;4.22;1.60;;;;;;;;;;4998318;28;20033;-73
2022/09/26 08:08:52;;;;;;;3.70;1.80;;;;;;;;;;5015904;28;20382;-76
2022/09/26 08:11:19;;;;;;;3.40;1.40;;;;;;;;;;5013325;28;20518;-74
2022/09/26 08:13:45;;;;;;;4.20;1.85;;;;;;;;;;5015801;28;20109;-74
2022/09/26 08:16:18;;;;;;;4.55;1.70;;;;;;;;;;4998143;28;20033;-74
2022/09/26 08:18:44;;;;;;;4.45;1.77;;;;;;;;;;4978805;28;20449;-75
2022/09/26 08:21:10;;;;;;;4.68;1.95;;;;;;;;;;5012776;28;20022;-71
2022/09/26 08:23:36;;;;;;;5.60;1.75;;;;;;;;;;5015540;28;20375;-73
2022/09/26 08:31:44;;;;;;;4.80;1.35;;;;;;;;;;4977383;28;20098;-75
2022/09/26 08:34:10;;;;;;;1.90;1.20;;;;;;;;;;4977274;28;20031;-80
2022/09/26 08:36:36;;;;;;;6.82;1.65;;;;;;;;;;4978905;28;20109;-78
2022/09/26 08:39:03;;;;;;;3.95;1.48;;;;;;;;;;4996947;28;20030;-77
2022/09/26 08:41:32;;;;;;;3.67;1.38;;;;;;;;;;4995834;28;20552;-77
2022/09/26 08:44:07;;;;;;;3.38;1.60;;;;;;;;;;4994675;28;20026;-79
2022/09/26 08:46:48;;;;;;;3.83;1.38;;;;;;;;;;4995784;28;20030;-77
2022/09/26 08:49:24;;;;;;;5.03;1.40;;;;;;;;;;5011174;28;20068;-79
2022/09/26 08:51:51;;;;;;;4.40;1.30;;;;;;;;;;4996372;28;20382;-74
2022/09/26 08:54:38;;;;;;;2.55;1.17;;;;;;;;;;4996329;28;20473;-77
2022/09/26 08:57:24;;;;;;;4.10;1.60;;;;;;;;;;4995688;28;20034;-78
2022/09/26 08:59:52;;;;;;;3.25;1.60;;;;;;;;;;4991626;28;20053;-79
2022/09/26 09:02:22;;;;;;;2.15;1.13;;;;;;;;;;4995924;28;20030;-78
2022/09/26 09:04:56;;;;;;;1.73;1.00;;;;;;;;;;4995552;28;20117;-81
2022/09/26 09:07:23;;;;;;;4.55;1.40;;;;;;;;;;4996121;28;20057;-76
2022/09/26 09:09:51;;;;;;;2.50;1.40;;;;;;;;;;4995296;28;20034;-76
2022/09/26 09:12:20;;;;;;;5.72;1.58;;;;;;;;;;4995677;28;20034;-77
2022/09/26 09:14:49;;;;;;;3.13;1.13;;;;;;;;;;4996224;28;20030;-77
2022/09/26 09:17:18;;;;;;;2.75;1.13;;;;;;;;;;4995657;28;20054;-77
2022/09/26 09:19:59;;;;;;;3.45;1.40;;;;;;;;;;5010158;28;20090;-77
2022/09/26 09:22:51;;;;;;;2.38;1.40;;;;;;;;;;4995547;28;20080;-77
2022/09/26 09:25:28;;;;;;;1.85;1.10;;;;;;;;;;4976290;28;20467;-78
2022/09/26 09:28:14;;;;;;;1.75;1.27;;;;;;;;;;4989171;28;20077;-77
2022/09/26 09:30:40;;;;;;;2.08;1.17;;;;;;;;;;5025500;28;20054;-77
2022/09/26 09:33:11;;;;;;;2.10;1.30;;;;;;;;;;5022981;28;20040;-76
2022/09/26 09:35:48;;;;;;;3.55;1.45;;;;;;;;;;5034932;28;20056;-77
2022/09/26 09:38:19;;;;;;;2.45;1.15;;;;;;;;;;5018814;28;20037;-78
2022/09/26 09:40:59;;;;;;;2.22;1.20;;;;;;;;;;5016685;28;20022;-75
2022/09/26 09:43:28;;;;;;;3.00;0.95;;;;;;;;;;5013113;28;20026;-78
2022/09/26 09:46:02;;;;;;;1.88;1.17;;;;;;;;;;5014773;28;20018;-77
2022/09/26 09:48:28;;;;;;;2.28;1.20;;;;;;;;;;5014883;28;20092;-76
2022/09/26 09:51:05;;;;;;;5.72;1.52;;;;;;;;;;5014505;28;20069;-75
2022/09/26 09:53:43;;;;;;;2.45;1.20;;;;;;;;;;5014739;28;20026;-77
2022/09/26 09:56:27;;;;;;;3.83;1.00;;;;;;;;;;5014739;28;20481;-75
2022/09/26 09:58:53;;;;;;;2.90;1.30;;;;;;;;;;5031569;28;20075;-74
2022/09/26 10:01:19;;;;;;;2.08;0.90;;;;;;;;;;5034032;28;20029;-76
2022/09/26 10:03:46;;;;;;;4.60;1.30;;;;;;;;;;5034002;28;20481;-75
2022/09/26 10:06:12;;;;;;;1.40;1.08;;;;;;;;;;5020805;28;20119;-74
2022/09/26 10:08:40;;;;;;;4.13;1.13;;;;;;;;;;5013719;28;20018;-74
2022/09/26 10:11:22;;;;;;;3.13;1.20;;;;;;;;;;5014485;28;20030;-74
2022/09/26 10:13:54;;;;;;;1.95;0.88;;;;;;;;;;5014467;28;20022;-73
2022/09/26 10:16:20;;;;;;;2.38;1.00;;;;;;;;;;5014520;28;20030;-72
2022/09/26 10:18:54;;;;;;;4.30;1.83;;;;;;;;;;5034240;28;20175;-74
2022/09/26 10:21:20;;;;;;;5.53;1.55;;;;;;;;;;5017138;28;20057;-76
2022/09/26 10:23:47;;;;;;;1.50;0.90;;;;;;;;;;5017141;28;20057;-76
2022/09/26 10:26:14;;;;;;;1.10;0.80;;;;;;;;;;5049014;28;20431;-77
2022/09/26 10:28:43;;;;;;;1.73;1.10;;;;;;;;;;5029443;28;20022;-76
2022/09/26 10:31:10;;;;;;;3.42;1.20;;;;;;;;;;5022284;28;20053;-77
2022/09/26 10:33:38;;;;;;;1.83;0.90;;;;;;;;;;5031856;28;20022;-73
2022/09/26 10:36:27;;;;;;;1.15;1.00;;;;;;;;;;5031874;28;20072;-74
2022/09/26 10:41:42;;;;;;;4.32;0.90;;;;;;;;;;5034002;28;20505;-74
2022/09/26 10:44:41;;;;;;;1.45;0.85;;;;;;;;;;5033393;28;20496;-73
2022/09/26 10:47:12;;;;;;;0.97;0.87;;;;;;;;;;5001130;28;20060;-73
2022/09/26 10:49:42;;;;;;;4.78;1.10;;;;;;;;;;5033355;28;20256;-73
2022/09/26 10:52:24;;;;;;;3.70;1.00;;;;;;;;;;5033924;28;20075;-74
2022/09/26 10:55:10;;;;;;;1.67;0.85;;;;;;;;;;5033536;28;20109;-74
2022/09/26 10:57:44;;;;;;;1.33;1.00;;;;;;;;;;5048802;28;20061;-73
2022/09/26 11:00:15;;;;;;;3.47;1.45;;;;;;;;;;5033777;28;20026;-74
2022/09/26 11:02:45;;;;;;;1.67;0.75;;;;;;;;;;5033692;28;20028;-73
2022/09/26 11:08:02;;;;;;;1.33;0.93;;;;;;;;;;5033409;28;20068;-74
2022/09/26 11:10:33;;;;;;;1.77;1.08;;;;;;;;;;5033096;28;20033;-73
2022/09/26 11:13:18;;;;;;;0.88;0.82;;;;;;;;;;5033180;28;20076;-73
2022/09/26 11:15:54;;;;;;;2.45;1.17;;;;;;;;;;5033368;28;20061;-73
2022/09/26 11:18:24;;;;;;;1.10;0.90;;;;;;;;;;5032916;28;20029;-73
2022/09/26 11:20:50;;;;;;;1.30;0.90;;;;;;;;;;5035944;28;20370;-73
2022/09/26 11:23:28;;;;;;;6.40;1.40;;;;;;;;;;5037354;28;20485;-74
2022/09/26 11:26:09;;;;;;;2.58;0.85;;;;;;;;;;5037309;28;20022;-73
2022/09/26 11:28:39;;;;;;;2.70;1.30;;;;;;;;;;5036882;28;20028;-73
2022/09/26 11:31:26;;;;;;;2.22;0.77;;;;;;;;;;5036675;28;20128;-73
2022/09/26 11:33:52;;;;;;;4.28;0.90;;;;;;;;;;5036641;28;20149;-73
2022/09/26 11:36:40;;;;;;;1.25;0.77;;;;;;;;;;5036859;28;20029;-74
2022/09/26 11:39:19;;;;;;;3.33;1.42;;;;;;;;;;5037040;28;20417;-73
2022/09/26 11:41:56;;;;;;;1.33;0.63;;;;;;;;;;5037065;28;20079;-74
2022/09/26 11:44:37;;;;;;;0.77;0.75;;;;;;;;;;5036932;28;20022;-73
2022/09/26 11:47:21;;;;;;;1.23;0.80;;;;;;;;;;5037138;28;20033;-73
2022/09/26 11:50:13;;;;;;;1.85;0.60;;;;;;;;;;5037099;28;20029;-73
2022/09/26 11:52:58;;;;;;;1.55;0.80;;;;;;;;;;5036816;28;20076;-73
2022/09/26 11:55:37;;;;;;;3.78;0.90;;;;;;;;;;5036476;28;20056;-73
2022/09/26 11:58:09;;;;;;;4.13;0.40;;;;;;;;;;5051444;28;20075;-73
2022/09/26 12:00:47;;;;;;;3.17;1.05;;;;;;;;;;5036823;28;20032;-72
2022/09/26 12:03:14;;;;;;;0.75;0.50;;;;;;;;;;5051654;28;20084;-74
2022/09/26 12:06:03;;;;;;;6.18;1.38;;;;;;;;;;5051670;28;20025;-75
2022/09/26 12:08:34;;;;;;;5.65;1.20;;;;;;;;;;5036860;28;20398;-73
2022/09/26 12:11:25;;;;;;;7.25;1.40;;;;;;;;;;5036217;28;20025;-73
2022/09/26 12:13:54;;;;;;;3.80;1.05;;;;;;;;;;5016969;28;20041;-79
2022/09/26 12:16:45;;;;;;;7.00;1.40;;;;;;;;;;5017354;28;20026;-81
2022/09/26 12:19:11;;;;;;;9.60;1.90;;;;;;;;;;5022144;28;20557;-79
2022/09/26 12:22:27;;;;;;;7.22;1.70;;;;;;;;;;5029438;28;20513;-81
2022/09/26 12:24:41;;;;;;;9.10;2.05;;;;;;;;;;5026995;28;20037;-78
2022/09/26 12:27:28;;;;;;;8.77;1.85;;;;;;;;;;5036087;28;20493;-79
2022/09/26 12:30:14;;;;;;;9.80;2.47;;;;;;;;;;5025239;28;20053;-79
2022/09/26 12:32:49;;;;;;;6.97;1.67;;;;;;;;;;5024537;28;20034;-77
2022/09/26 12:35:28;;;;;;;5.18;1.58;;;;;;;;;;5035605;28;20036;-78
2022/09/26 12:38:14;;;;;;;8.60;2.30;;;;;;;;;;5036050;28;20028;-78
2022/09/26 12:40:52;;;;;;;10.73;1.92;;;;;;;;;;5035740;28;20072;-74
2022/09/26 12:43:27;;;;;;;11.65;2.35;;;;;;;;;;5035343;28;20024;-79
2022/09/26 12:46:26;;;;;;;6.45;1.55;;;;;;;;;;5036036;28;20052;-76
2022/09/26 12:48:52;;;;;;;9.38;2.00;;;;;;;;;;4973510;28;20030;-74
2022/09/26 12:51:21;;;;;;;5.32;1.48;;;;;;;;;;5006584;28;20056;-75
2022/09/26 12:53:49;;;;;;;5.57;1.42;;;;;;;;;;5026764;28;20048;-74
2022/09/26 12:56:21;;;;;;;9.27;1.73;;;;;;;;;;5024007;28;20101;-73
2022/09/26 12:58:56;;;;;;;6.40;1.75;;;;;;;;;;5034434;28;20026;-73
2022/09/26 13:01:43;;;;;;;9.07;1.88;;;;;;;;;;5027383;28;20408;-73
2022/09/26 13:04:21;;;;;;;7.20;1.92;;;;;;;;;;5044843;28;20025;-73
2022/09/26 13:06:54;;;;;;;13.27;2.60;;;;;;;;;;5006498;28;20060;-73
2022/09/26 13:09:28;;;;;;;7.85;1.83;;;;;;;;;;5027552;28;20017;-73
2022/09/26 13:12:02;;;;;;;5.65;1.70;;;;;;;;;;5020216;28;20040;-73
2022/09/26 13:14:47;;;;;;;10.20;2.38;;;;;;;;;;5016299;28;20054;-73
2022/09/26 13:17:20;;;;;;;11.68;2.72;;;;;;;;;;5022786;28;20033;-73
2022/09/26 13:19:52;;;;;;;8.15;1.77;;;;;;;;;;5016802;28;20030;-73
2022/09/26 13:22:19;;;;;;;9.20;1.92;;;;;;;;;;5025114;28;20110;-73
2022/09/26 13:24:46;;;;;;;17.20;2.90;;;;;;;;;;5024112;28;20022;-73
2022/09/26 13:27:11;;;;;;;10.00;2.50;;;;;;;;;;5043152;28;20375;-73
2022/09/26 13:29:39;;;;;;;14.27;3.47;;;;;;;;;;5025363;28;20048;-73
2022/09/26 13:32:17;;;;;;;17.63;2.85;;;;;;;;;;5034176;28;20064;-73
2022/09/26 13:34:50;;;;;;;9.43;2.70;;;;;;;;;;5022387;28;20030;-73
2022/09/26 13:37:33;;;;;;;13.70;3.65;;;;;;;;;;5028192;28;20557;-72
2022/09/26 13:40:01;;;;;;;10.13;3.00;;;;;;;;;;5018618;28;20033;-72
2022/09/26 13:42:41;;;;;;;15.65;3.03;;;;;;;;;;5015590;28;20463;-77
2022/09/26 13:45:18;;;;;;;11.18;2.80;;;;;;;;;;4995411;28;20069;-79
2022/09/26 13:47:48;;;;;;;19.20;3.22;;;;;;;;;;4995346;28;20363;-75
2022/09/26 13:50:38;;;;;;;16.10;2.50;;;;;;;;;;4995057;28;20026;-77
2022/09/26 13:53:14;;;;;;;13.68;2.78;;;;;;;;;;4994990;28;20030;-76
2022/09/26 13:55:42;;;;;;;14.82;2.97;;;;;;;;;;4993366;28;20026;-77
2022/09/26 13:58:25;;;;;;;17.40;3.88;;;;;;;;;;5001310;28;20029;-78
2022/09/26 14:01:00;;;;;;;13.52;2.75;;;;;;;;;;5034495;28;20045;-77
2022/09/26 14:03:27;;;;;;;12.65;3.13;;;;;;;;;;5034545;28;20108;-82
2022/09/26 14:06:06;;;;;;;12.57;3.10;;;;;;;;;;5049331;28;20396;-76
2022/09/26 14:11:34;;;;;;;16.13;3.03;;;;;;;;;;5034067;28;20125;-75
2022/09/26 14:14:18;;;;;;;14.07;3.03;;;;;;;;;;5021640;28;20036;-76
2022/09/26 14:16:50;;;;;;;18.70;4.15;;;;;;;;;;5029955;28;20119;-76
2022/09/26 14:19:25;;;;;;;9.75;2.88;;;;;;;;;;5021904;28;20171;-74
2022/09/26 14:22:01;;;;;;;12.55;3.03;;;;;;;;;;5018783;28;20028;-75
2022/09/26 14:24:38;;;;;;;15.90;3.50;;;;;;;;;;5033017;28;20081;-74
2022/09/26 14:27:12;;;;;;;14.68;2.83;;;;;;;;;;5032200;28;20486;-78
2022/09/26 14:29:38;;;;;;;20.85;3.70;;;;;;;;;;5032814;28;20045;-76
2022/09/26 14:32:13;;;;;;;20.60;4.00;;;;;;;;;;5027306;28;20052;-77
2022/09/26 14:34:42;;;;;;;12.57;3.05;;;;;;;;;;5025818;28;20029;-77
2022/09/26 14:37:24;;;;;;;19.38;3.50;;;;;;;;;;5022599;28;20033;-77
2022/09/26 14:39:59;;;;;;;18.92;3.92;;;;;;;;;;5027291;28;20496;-79
2022/09/26 14:42:48;;;;;;;13.25;3.55;;;;;;;;;;5033873;28;20048;-73
2022/09/26 14:45:19;;;;;;;13.07;3.17;;;;;;;;;;5007019;28;20033;-78
2022/09/26 14:47:48;;;;;;;14.68;3.45;;;;;;;;;;5025332;28;20025;-77
2022/09/26 14:50:19;;;;;;;17.55;4.07;;;;;;;;;;5033830;28;20024;-79
2022/09/26 14:52:45;;;;;;;;;;;;;;;;;;5048988;28;20033;-78
2022/09/26 14:55:14;;;;;;;20.77;4.25;;;;;;;;;;5032879;28;19905;-77
2022/09/26 14:57:40;;;;;;;14.40;3.65;;;;;;;;;;5019518;28;20032;-78
2022/09/26 15:00:27;;;;;;;15.02;3.72;;;;;;;;;;5013389;28;20026;-78
2022/09/26 15:02:54;;;;;;;18.92;3.75;;;;;;;;;;5014089;28;20026;-79
2022/09/26 15:05:24;;;;;;;16.92;4.25;;;;;;;;;;5018550;28;20018;-78
2022/09/26 15:07:54;;;;;;;15.85;3.88;;;;;;;;;;5016226;28;20558;-78
2022/09/26 15:10:22;;;;;;;16.92;3.65;;;;;;;;;;5014969;28;20022;-78
2022/09/26 15:12:57;;;;;;;17.30;3.75;;;;;;;;;;5012852;28;20573;-78
2022/09/26 15:15:42;;;;;;;19.60;4.53;;;;;;;;;;5013097;28;20030;-77
2022/09/26 15:18:14;;;;;;;20.33;3.95;;;;;;;;;;5013542;28;20032;-77
2022/09/26 15:20:42;;;;;;;15.02;3.58;;;;;;;;;;5013374;28;20030;-78
2022/09/26 15:23:21;;;;;;;13.05;3.83;;;;;;;;;;5028491;28;20028;-76
2022/09/26 15:25:47;;;;;;;19.58;4.65;;;;;;;;;;5018199;28;20444;-75
2022/09/26 15:28:13;;;;;;;15.90;2.80;;;;;;;;;;5027859;28;20443;-76
2022/09/26 15:30:40;;;;;;;19.05;4.18;;;;;;;;;;5032634;28;20425;-75